createdAt,value
2022-11-06T00:00:38.759Z,11.33
2022-11-06T00:03:07.886Z,10.70
2022-11-06T00:05:53.799Z,11.00
2022-11-06T00:08:33.215Z,9.63
2022-11-06T00:11:01.937Z,9.57
2022-11-06T00:13:30.935Z,9.43
2022-11-06T00:16:04.788Z,9.23
2022-11-06T00:18:33.339Z,8.17
2022-11-06T00:21:07.911Z,9.27
2022-11-06T00:23:37.944Z,8.43
2022-11-06T00:26:10.600Z,8.83
2022-11-06T00:28:39.455Z,8.73
2022-11-06T00:31:10.381Z,8.67
2022-11-06T00:33:38.645Z,8.63
2022-11-06T00:36:09.760Z,8.57
2022-11-06T00:38:39.293Z,8.40
2022-11-06T00:41:19.147Z,8.93
2022-11-06T00:43:51.458Z,9.10
2022-11-06T00:46:20.656Z,9.03
2022-11-06T00:48:49.984Z,9.10
2022-11-06T00:51:22.192Z,8.20
2022-11-06T00:53:56.438Z,8.13
2022-11-06T00:56:25.486Z,8.07
2022-11-06T00:58:54.119Z,9.23
2022-11-06T01:01:24.339Z,9.27
2022-11-06T01:03:56.502Z,9.43
2022-11-06T01:06:27.513Z,9.27
2022-11-06T01:08:57.899Z,8.80
2022-11-06T01:11:41.626Z,10.70
2022-11-06T01:14:20.744Z,9.70
2022-11-06T01:16:49.914Z,8.57
2022-11-06T01:19:20.756Z,9.73
2022-11-06T01:21:52.681Z,9.80
2022-11-06T01:24:25.002Z,9.57
2022-11-06T01:27:24.362Z,10.17
2022-11-06T01:29:42.093Z,8.97
2022-11-06T01:32:10.852Z,9.70
2022-11-06T01:34:39.189Z,9.87
2022-11-06T01:37:13.055Z,8.90
2022-11-06T01:39:44.163Z,8.70
2022-11-06T01:42:14.026Z,9.20
2022-11-06T01:45:21.918Z,8.47
2022-11-06T01:47:50.646Z,7.67
2022-11-06T01:50:20.504Z,8.03
2022-11-06T01:52:51.670Z,7.20
2022-11-06T01:55:30.390Z,7.63
2022-11-06T01:58:02.804Z,7.93
2022-11-06T02:00:32.482Z,6.53
2022-11-06T02:03:02.483Z,6.93
2022-11-06T02:05:31.553Z,7.03
2022-11-06T02:08:01.795Z,7.40
2022-11-06T02:10:31.936Z,7.77
2022-11-06T02:13:18.532Z,6.57
2022-11-06T02:15:52.485Z,8.77
2022-11-06T02:18:57.858Z,7.37
2022-11-06T02:22:09.399Z,7.37
2022-11-06T02:25:15.701Z,8.23
2022-11-06T02:27:50.428Z,6.67
2022-11-06T02:30:19.785Z,7.43
2022-11-06T02:32:57.873Z,8.03
2022-11-06T02:35:32.433Z,6.27
2022-11-06T02:38:06.771Z,6.43
2022-11-06T02:40:41.019Z,6.30
2022-11-06T02:43:11.835Z,6.87
2022-11-06T02:45:48.452Z,7.53
2022-11-06T02:48:22.331Z,7.83
2022-11-06T02:50:55.696Z,7.97
2022-11-06T02:53:27.319Z,6.90
2022-11-06T02:56:00.400Z,8.07
2022-11-06T02:58:39.256Z,7.97
2022-11-06T03:01:15.495Z,7.63
2022-11-06T03:03:49.586Z,7.97
2022-11-06T03:06:30.423Z,7.83
2022-11-06T03:09:07.562Z,7.63
2022-11-06T03:11:38.969Z,7.77
2022-11-06T03:14:19.612Z,7.17
2022-11-06T03:16:58.826Z,7.83
2022-11-06T03:19:33.647Z,6.60
2022-11-06T03:22:09.804Z,7.37
2022-11-06T03:24:47.842Z,6.60
2022-11-06T03:27:21.517Z,6.30
2022-11-06T03:29:57.904Z,7.90
2022-11-06T03:32:33.380Z,7.30
2022-11-06T03:35:10.139Z,7.53
2022-11-06T03:37:45.678Z,7.27
2022-11-06T03:40:21.282Z,8.23
2022-11-06T03:42:53.954Z,8.60
2022-11-06T03:45:27.664Z,9.37
2022-11-06T03:48:03.406Z,8.40
2022-11-06T03:50:38.703Z,9.17
2022-11-06T03:53:15.329Z,9.33
2022-11-06T03:55:49.802Z,9.40
2022-11-06T03:58:24.340Z,10.13
2022-11-06T04:00:57.710Z,9.73
2022-11-06T04:03:32.261Z,10.70
2022-11-06T04:06:11.526Z,10.50
2022-11-06T04:09:00.933Z,10.10
2022-11-06T04:11:49.929Z,8.87
2022-11-06T04:14:22.445Z,8.57
2022-11-06T04:16:56.095Z,8.07
2022-11-06T04:19:24.857Z,8.27
2022-11-06T04:22:24.955Z,9.40
2022-11-06T04:25:26.172Z,8.13
2022-11-06T04:28:09.114Z,8.73
2022-11-06T04:30:54.786Z,8.37
2022-11-06T04:33:31.297Z,7.73
2022-11-06T04:36:11.393Z,8.70
2022-11-06T04:38:48.386Z,6.97
2022-11-06T04:41:34.244Z,6.97
2022-11-06T04:44:10.839Z,7.47
2022-11-06T04:46:46.178Z,6.40
2022-11-06T04:49:16.915Z,7.37
2022-11-06T04:51:47.408Z,6.70
2022-11-06T04:54:17.084Z,7.03
2022-11-06T04:56:46.477Z,6.27
2022-11-06T04:59:18.329Z,6.37
2022-11-06T05:01:47.370Z,6.47
2022-11-06T05:04:17.048Z,6.90
2022-11-06T05:06:45.278Z,7.40
2022-11-06T05:09:13.453Z,9.00
2022-11-06T05:11:41.555Z,9.27
2022-11-06T05:14:09.782Z,8.97
2022-11-06T05:16:37.945Z,10.23
2022-11-06T05:19:06.194Z,10.23
2022-11-06T05:21:53.301Z,12.70
2022-11-06T05:24:21.374Z,10.93
2022-11-06T05:26:52.335Z,12.50
2022-11-06T05:29:24.375Z,9.63
2022-11-06T05:31:52.500Z,8.40
2022-11-06T05:34:20.725Z,8.13
2022-11-06T05:36:50.276Z,8.43
2022-11-06T05:39:18.387Z,7.67
2022-11-06T05:41:46.542Z,6.10
2022-11-06T05:44:14.806Z,5.97
2022-11-06T05:46:48.730Z,5.53
2022-11-06T05:49:18.532Z,5.53
2022-11-06T05:51:46.810Z,6.10
2022-11-06T05:54:16.457Z,6.10
2022-11-06T05:56:44.534Z,6.33
2022-11-06T05:59:13.096Z,6.00
2022-11-06T06:01:41.437Z,6.17
2022-11-06T06:04:09.689Z,6.73
2022-11-06T06:06:38.670Z,6.50
2022-11-06T06:09:06.905Z,5.13
2022-11-06T06:11:36.384Z,5.53
2022-11-06T06:14:04.593Z,5.50
2022-11-06T06:16:32.736Z,5.00
2022-11-06T06:19:00.909Z,5.90
2022-11-06T06:21:29.044Z,4.47
2022-11-06T06:23:57.127Z,5.13
2022-11-06T06:26:25.477Z,5.33
2022-11-06T06:28:55.132Z,4.67
2022-11-06T06:31:23.580Z,5.23
2022-11-06T06:33:51.857Z,5.67
2022-11-06T06:36:20.139Z,5.37
2022-11-06T06:38:48.299Z,4.30
2022-11-06T06:41:16.585Z,5.17
2022-11-06T06:43:44.940Z,4.90
2022-11-06T06:46:14.475Z,5.37
2022-11-06T06:48:42.869Z,6.70
2022-11-06T06:51:11.183Z,7.50
2022-11-06T06:53:39.452Z,5.27
2022-11-06T06:56:08.635Z,6.40
2022-11-06T06:58:36.780Z,8.30
2022-11-06T07:01:10.241Z,7.80
2022-11-06T07:03:40.770Z,6.70
2022-11-06T07:06:09.236Z,6.80
2022-11-06T07:08:37.379Z,8.27
2022-11-06T07:11:08.750Z,12.83
2022-11-06T07:13:37.322Z,7.00
2022-11-06T07:16:07.626Z,7.97
2022-11-06T07:18:37.238Z,6.80
2022-11-06T07:21:09.006Z,7.43
2022-11-06T07:23:37.796Z,7.03
2022-11-06T07:26:07.180Z,7.30
2022-11-06T07:28:35.779Z,8.43
2022-11-06T07:31:07.038Z,7.07
2022-11-06T07:33:36.664Z,7.53
2022-11-06T07:36:09.109Z,8.00
2022-11-06T07:38:38.644Z,7.23
2022-11-06T07:41:09.705Z,7.73
2022-11-06T07:43:38.523Z,8.40
2022-11-06T07:46:10.394Z,8.33
2022-11-06T07:48:39.498Z,7.67
2022-11-06T07:51:12.234Z,8.27
2022-11-06T07:53:41.200Z,8.33
2022-11-06T07:56:09.913Z,9.13
2022-11-06T07:58:38.724Z,10.50
2022-11-06T08:01:07.526Z,9.53
2022-11-06T08:03:35.690Z,9.80
2022-11-06T08:06:05.883Z,9.47
2022-11-06T08:08:35.474Z,9.60
2022-11-06T08:11:04.431Z,9.77
2022-11-06T08:13:33.964Z,11.23
2022-11-06T08:16:06.185Z,11.37
2022-11-06T08:18:34.969Z,11.33
2022-11-06T08:21:03.645Z,11.57
2022-11-06T08:23:31.781Z,11.37
2022-11-06T08:26:04.601Z,12.13
2022-11-06T08:28:32.721Z,12.03
2022-11-06T08:31:05.781Z,11.83
2022-11-06T08:33:34.983Z,11.63
2022-11-06T08:36:04.421Z,12.60
2022-11-06T08:38:32.978Z,12.20
2022-11-06T08:41:06.466Z,13.40
2022-11-06T08:43:35.212Z,13.83
2022-11-06T08:46:04.568Z,12.90
2022-11-06T08:48:34.033Z,14.40
2022-11-06T08:51:02.769Z,13.70
2022-11-06T08:53:30.974Z,14.37
2022-11-06T08:55:59.078Z,16.00
2022-11-06T08:58:28.576Z,14.87
2022-11-06T09:00:56.799Z,15.77
2022-11-06T09:03:24.917Z,15.27
2022-11-06T09:05:53.033Z,14.70
2022-11-06T09:08:21.119Z,14.80
2022-11-06T09:10:50.445Z,13.93
2022-11-06T09:13:20.468Z,15.13
2022-11-06T09:15:50.185Z,12.87
2022-11-06T09:18:18.299Z,13.93
2022-11-06T09:20:46.456Z,14.67
2022-11-06T09:23:15.023Z,14.57
2022-11-06T09:25:43.358Z,14.53
2022-11-06T09:28:11.473Z,14.83
2022-11-06T09:30:39.717Z,14.30
2022-11-06T09:33:13.283Z,14.70
2022-11-06T09:35:42.481Z,15.20
2022-11-06T09:38:15.293Z,14.77
2022-11-06T09:40:50.755Z,13.80
2022-11-06T09:44:03.542Z,12.43
2022-11-06T09:46:30.512Z,12.57
2022-11-06T09:49:11.965Z,13.03
2022-11-06T09:51:49.785Z,12.60
2022-11-06T09:54:27.534Z,12.60
2022-11-06T09:57:02.224Z,11.63
2022-11-06T09:59:37.182Z,10.20
2022-11-06T10:02:22.740Z,10.43
2022-11-06T10:05:03.432Z,10.60
2022-11-06T10:07:36.184Z,9.50
2022-11-06T10:10:08.655Z,10.90
2022-11-06T10:12:58.742Z,9.53
2022-11-06T10:15:34.348Z,9.60
2022-11-06T10:18:14.132Z,9.87
2022-11-06T10:20:53.200Z,10.10
2022-11-06T10:23:37.537Z,10.43
2022-11-06T10:26:13.399Z,9.33
2022-11-06T10:29:21.878Z,9.73
2022-11-06T10:32:09.338Z,10.43
2022-11-06T10:34:43.618Z,9.57
2022-11-06T10:37:20.716Z,11.00
2022-11-06T10:39:51.132Z,11.73
2022-11-06T10:42:22.915Z,10.90
2022-11-06T10:44:59.004Z,10.93
2022-11-06T10:47:33.737Z,11.47
2022-11-06T10:50:08.199Z,11.73
2022-11-06T10:52:51.816Z,12.43
2022-11-06T10:55:57.304Z,12.30
2022-11-06T10:58:31.360Z,12.80
2022-11-06T11:01:03.421Z,12.23
2022-11-06T11:03:35.674Z,11.03
2022-11-06T11:06:05.431Z,10.57
2022-11-06T11:08:40.213Z,11.67
2022-11-06T11:11:23.557Z,11.07
2022-11-06T11:14:15.774Z,11.03
2022-11-06T11:16:46.600Z,10.23
2022-11-06T11:19:35.034Z,10.87
2022-11-06T11:22:06.375Z,9.83
2022-11-06T11:24:35.624Z,10.97
2022-11-06T11:27:08.242Z,11.55
2022-11-06T11:29:48.403Z,12.87
2022-11-06T11:32:21.372Z,12.53
2022-11-06T11:34:56.654Z,12.13
2022-11-06T11:37:30.795Z,10.27
2022-11-06T11:40:22.249Z,12.07
2022-11-06T11:42:50.863Z,13.00
2022-11-06T11:45:22.512Z,10.77
2022-11-06T11:47:52.924Z,10.63
2022-11-06T11:50:33.264Z,10.75
2022-11-06T11:53:10.554Z,9.83
2022-11-06T11:55:45.588Z,10.50
2022-11-06T11:58:23.307Z,10.20
2022-11-06T12:00:57.562Z,9.60
2022-11-06T12:03:31.046Z,9.80
2022-11-06T12:06:10.232Z,9.63
2022-11-06T12:08:42.445Z,10.90
2022-11-06T12:11:17.471Z,10.70
2022-11-06T12:13:45.580Z,10.82
2022-11-06T12:16:20.734Z,10.65
2022-11-06T12:18:58.499Z,11.68
2022-11-06T12:21:33.943Z,10.65
2022-11-06T12:24:12.246Z,9.83
2022-11-06T12:26:47.648Z,10.05
2022-11-06T12:29:20.782Z,9.77
2022-11-06T12:31:59.596Z,8.70
2022-11-06T12:34:38.409Z,9.48
2022-11-06T12:37:21.864Z,9.55
2022-11-06T12:40:01.867Z,8.77
2022-11-06T12:42:34.790Z,8.07
2022-11-06T12:45:03.610Z,10.73
2022-11-06T12:47:49.583Z,9.70
2022-11-06T12:50:33.734Z,9.10
2022-11-06T12:53:20.173Z,9.23
2022-11-06T12:56:00.089Z,9.93
2022-11-06T12:59:00.631Z,9.48
2022-11-06T13:01:46.754Z,9.95
2022-11-06T13:04:43.052Z,9.50
2022-11-06T13:07:44.371Z,9.25
2022-11-06T13:10:35.136Z,8.05
2022-11-06T13:13:29.107Z,8.63
2022-11-06T13:16:11.498Z,9.38
2022-11-06T13:18:52.860Z,8.48
2022-11-06T13:21:34.232Z,8.80
2022-11-06T13:24:11.499Z,8.90
2022-11-06T13:26:48.210Z,8.10
2022-11-06T13:29:19.093Z,8.40
2022-11-06T13:31:54.198Z,7.85
2022-11-06T13:34:28.816Z,9.27
2022-11-06T13:36:59.212Z,8.85
2022-11-06T13:39:35.148Z,10.05
2022-11-06T13:42:18.300Z,10.00
2022-11-06T13:44:46.737Z,9.02
2022-11-06T13:47:22.571Z,9.73
2022-11-06T13:50:06.401Z,9.93
2022-11-06T13:52:46.367Z,11.70
2022-11-06T13:55:24.775Z,9.05
2022-11-06T13:58:25.085Z,10.77
2022-11-06T14:01:12.425Z,10.32
2022-11-06T14:04:15.697Z,11.45
2022-11-06T14:06:45.821Z,11.33
2022-11-06T14:09:22.103Z,10.65
2022-11-06T14:11:56.742Z,10.57
2022-11-06T14:14:28.433Z,10.33
2022-11-06T14:17:21.979Z,10.43
2022-11-06T14:20:28.947Z,10.70
2022-11-06T14:23:17.120Z,12.20
2022-11-06T14:26:00.963Z,11.38
2022-11-06T14:28:34.828Z,9.70
2022-11-06T14:31:12.036Z,10.00
2022-11-06T14:34:02.695Z,10.37
2022-11-06T14:36:37.405Z,9.93
2022-11-06T14:39:14.386Z,10.27
2022-11-06T14:42:00.538Z,9.25
2022-11-06T14:44:50.415Z,10.13
2022-11-06T14:47:36.925Z,10.00
2022-11-06T14:50:24.596Z,9.83
2022-11-06T14:52:56.658Z,10.30
2022-11-06T14:55:31.601Z,10.18
2022-11-06T14:58:16.571Z,9.45
2022-11-06T15:00:52.076Z,9.70
2022-11-06T15:03:29.661Z,9.23
2022-11-06T15:06:06.299Z,9.20
2022-11-06T15:09:00.690Z,9.43
2022-11-06T15:11:55.632Z,9.73
2022-11-06T15:15:11.189Z,9.45
2022-11-06T15:17:40.862Z,9.60
2022-11-06T15:20:27.439Z,9.77
2022-11-06T15:23:24.219Z,10.13
2022-11-06T15:26:03.683Z,9.80
2022-11-06T15:28:42.501Z,9.93
2022-11-06T15:31:18.498Z,10.17
2022-11-06T15:34:01.007Z,8.47
2022-11-06T15:36:33.619Z,9.73
2022-11-06T15:39:02.076Z,9.17
2022-11-06T15:41:30.834Z,9.33
2022-11-06T15:43:59.797Z,11.53
2022-11-06T15:46:30.573Z,14.93
2022-11-06T15:49:17.478Z,18.23
2022-11-06T15:51:57.082Z,13.73
2022-11-06T15:54:37.061Z,11.07
2022-11-06T15:57:15.471Z,10.70
2022-11-06T15:59:43.855Z,10.77
2022-11-06T16:02:19.309Z,11.27
2022-11-06T16:04:49.614Z,10.27
2022-11-06T16:07:19.941Z,11.13
2022-11-06T16:09:49.003Z,9.57
2022-11-06T16:12:19.500Z,10.33
2022-11-06T16:14:47.639Z,11.23
2022-11-06T16:17:26.424Z,11.53
2022-11-06T16:19:59.609Z,10.47
2022-11-06T16:22:32.209Z,10.73
2022-11-06T16:25:05.303Z,10.93
2022-11-06T16:27:36.867Z,11.77
2022-11-06T16:30:07.354Z,10.93
2022-11-06T16:32:42.022Z,12.20
2022-11-06T16:35:32.255Z,12.33
2022-11-06T16:38:43.991Z,13.70
2022-11-06T16:41:35.157Z,13.20
2022-11-06T16:44:31.234Z,13.73
2022-11-06T16:47:18.684Z,13.70
2022-11-06T16:49:54.068Z,15.20
2022-11-06T16:52:27.559Z,15.43
2022-11-06T16:55:00.399Z,15.67
2022-11-06T16:57:33.381Z,14.50
2022-11-06T17:00:07.019Z,15.00
2022-11-06T17:02:39.033Z,14.13
2022-11-06T17:05:21.850Z,15.30
2022-11-06T17:08:05.123Z,15.43
2022-11-06T17:10:42.680Z,17.43
2022-11-06T17:13:19.486Z,27.47
2022-11-06T17:15:50.119Z,27.33
2022-11-06T17:18:22.078Z,25.93
2022-11-06T17:20:56.435Z,22.37
2022-11-06T17:23:25.848Z,23.17
2022-11-06T17:25:59.943Z,28.47
2022-11-06T17:28:28.198Z,33.07
2022-11-06T17:30:56.475Z,24.00
2022-11-06T17:33:25.042Z,22.87
2022-11-06T17:35:54.597Z,18.70
2022-11-06T17:38:22.848Z,20.33
2022-11-06T17:40:50.973Z,24.07
2022-11-06T17:43:19.142Z,24.83
2022-11-06T17:45:49.884Z,20.10
2022-11-06T17:48:19.174Z,21.57
2022-11-06T17:51:04.834Z,28.53
2022-11-06T17:53:34.542Z,25.57
2022-11-06T17:56:05.580Z,22.80
2022-11-06T17:58:34.608Z,19.93
2022-11-06T18:01:08.624Z,20.00
2022-11-06T18:03:44.510Z,20.33
2022-11-06T18:06:14.139Z,23.37
2022-11-06T18:08:44.588Z,22.67
2022-11-06T18:11:13.445Z,28.10
2022-11-06T18:13:41.857Z,32.80
2022-11-06T18:16:17.507Z,37.33
2022-11-06T18:18:45.667Z,34.40
2022-11-06T18:21:13.865Z,24.37
2022-11-06T18:23:43.692Z,21.37
2022-11-06T18:26:12.955Z,21.13
2022-11-06T18:28:41.407Z,22.00
2022-11-06T18:31:09.922Z,22.70
2022-11-06T18:33:38.009Z,23.00
2022-11-06T18:36:10.322Z,21.20
2022-11-06T18:38:40.881Z,20.77
2022-11-06T18:41:12.138Z,20.03
2022-11-06T18:43:40.539Z,19.47
2022-11-06T18:46:11.192Z,17.40
2022-11-06T18:48:39.580Z,18.03
2022-11-06T18:51:09.272Z,19.73
2022-11-06T18:53:38.916Z,19.07
2022-11-06T18:56:12.170Z,23.20
2022-11-06T18:58:41.222Z,25.33
2022-11-06T19:01:12.294Z,22.70
2022-11-06T19:03:41.929Z,23.83
2022-11-06T19:06:14.158Z,25.80
2022-11-06T19:08:43.713Z,28.27
2022-11-06T19:11:15.989Z,29.13
2022-11-06T19:13:47.911Z,30.47
2022-11-06T19:16:19.151Z,25.57
2022-11-06T19:21:30.019Z,20.40
2022-11-06T19:24:03.907Z,18.93
2022-11-06T19:26:35.860Z,20.10
2022-11-06T19:29:05.350Z,18.90
2022-11-06T19:31:34.046Z,19.87
2022-11-06T19:34:03.316Z,17.87
2022-11-06T19:36:32.796Z,18.33
2022-11-06T19:39:01.291Z,19.13
2022-11-06T19:41:30.176Z,18.93
2022-11-06T19:44:00.070Z,18.53
2022-11-06T19:46:35.101Z,17.23
2022-11-06T19:49:05.081Z,16.33
2022-11-06T19:51:34.368Z,17.07
2022-11-06T19:54:02.918Z,16.63
2022-11-06T19:56:31.103Z,14.53
2022-11-06T19:59:01.980Z,17.83
2022-11-06T20:01:30.276Z,17.97
2022-11-06T20:03:58.620Z,18.03
2022-11-06T20:06:27.835Z,17.57
2022-11-06T20:08:56.206Z,16.97
2022-11-06T20:11:24.734Z,18.33
2022-11-06T20:13:52.922Z,16.17
2022-11-06T20:16:23.047Z,16.03
2022-11-06T20:18:53.023Z,14.63
2022-11-06T20:21:22.385Z,13.80
2022-11-06T20:23:50.997Z,14.03
2022-11-06T20:26:19.852Z,14.07
2022-11-06T20:28:48.493Z,13.60
2022-11-06T20:31:20.019Z,14.13
2022-11-06T20:33:50.452Z,15.33
2022-11-06T20:36:22.909Z,16.93
2022-11-06T20:38:51.746Z,17.17
2022-11-06T20:41:20.007Z,17.17
2022-11-06T20:43:48.702Z,15.80
2022-11-06T20:46:18.675Z,15.57
2022-11-06T20:48:49.546Z,16.17
2022-11-06T20:51:21.238Z,15.17
2022-11-06T20:53:50.084Z,17.90
2022-11-06T20:56:21.447Z,17.23
2022-11-06T20:58:49.834Z,16.40
2022-11-06T21:01:21.634Z,15.90
2022-11-06T21:03:52.671Z,16.27
2022-11-06T21:06:24.265Z,15.43
2022-11-06T21:08:52.894Z,14.77
2022-11-06T21:11:23.463Z,15.67
2022-11-06T21:13:55.025Z,15.77
2022-11-06T21:16:25.697Z,15.43
2022-11-06T21:18:55.754Z,16.90
2022-11-06T21:21:26.581Z,16.47
2022-11-06T21:23:56.325Z,17.03
2022-11-06T21:26:27.896Z,15.97
2022-11-06T21:28:56.167Z,17.37
2022-11-06T21:31:27.413Z,15.30
2022-11-06T21:34:00.502Z,15.93
2022-11-06T21:36:31.801Z,15.53
2022-11-06T21:39:02.886Z,14.77
2022-11-06T21:41:34.008Z,14.43
2022-11-06T21:44:02.836Z,14.27
2022-11-06T21:46:31.292Z,13.63
2022-11-06T21:49:01.056Z,15.03
2022-11-06T21:51:31.567Z,12.97
2022-11-06T21:54:18.994Z,13.70
2022-11-06T21:56:50.612Z,13.13
2022-11-06T21:59:25.351Z,13.87
2022-11-06T22:01:54.211Z,15.07
2022-11-06T22:04:24.111Z,14.57
2022-11-06T22:06:54.777Z,13.30
2022-11-06T22:09:25.630Z,13.47
2022-11-06T22:11:54.557Z,12.73
2022-11-06T22:14:22.924Z,13.03
2022-11-06T22:16:51.083Z,12.70
2022-11-06T22:19:19.265Z,11.97
2022-11-06T22:21:48.710Z,12.37
2022-11-06T22:24:17.069Z,12.10
2022-11-06T22:26:45.230Z,12.27
2022-11-06T22:29:15.604Z,12.40
2022-11-06T22:31:44.233Z,11.90
2022-11-06T22:34:13.358Z,12.73
2022-11-06T22:36:42.609Z,10.73
2022-11-06T22:39:13.396Z,11.17
2022-11-06T22:41:42.271Z,11.60
2022-11-06T22:44:12.484Z,11.60
2022-11-06T22:46:41.052Z,11.57
2022-11-06T22:49:09.756Z,10.97
2022-11-06T22:51:38.117Z,10.97
2022-11-06T22:54:06.927Z,10.93
2022-11-06T22:56:36.614Z,11.47
2022-11-06T22:59:08.779Z,10.23
2022-11-06T23:01:42.339Z,10.60
2022-11-06T23:04:15.676Z,10.80
2022-11-06T23:06:45.417Z,10.93
2022-11-06T23:09:14.466Z,10.67
2022-11-06T23:11:47.103Z,9.83
2022-11-06T23:14:15.320Z,10.50
2022-11-06T23:16:58.914Z,10.17
2022-11-06T23:19:29.388Z,10.80
2022-11-06T23:22:11.570Z,10.07
2022-11-06T23:24:39.993Z,10.73
2022-11-06T23:27:10.983Z,9.83
2022-11-06T23:29:40.147Z,9.50
2022-11-06T23:32:08.594Z,9.43
2022-11-06T23:34:36.692Z,9.53
2022-11-06T23:37:04.830Z,9.53
2022-11-06T23:39:32.954Z,8.97
2022-11-06T23:42:01.085Z,8.63
2022-11-06T23:44:48.043Z,8.63
2022-11-06T23:47:16.236Z,8.17
2022-11-06T23:49:44.353Z,8.47
2022-11-06T23:52:12.414Z,8.30
2022-11-06T23:54:40.589Z,8.60
2022-11-06T23:57:09.449Z,7.25
2022-11-06T23:59:39.217Z,7.30
